Terminal Aerodrome Forecast
Issued by NWS Jackson, KY

Home | Current Version | Previous Version | Text Only | Print | Product List | Glossary On
Versions: 1 2 3 4 5 6 7 8 9 10 11 12 13 14 15 16 17
621
FTUS43 KJKL 211120
TAFJKL
TAF
KJKL 211120Z 2112/2212 VRB03KT P6SM SKC
     FM211700 21007KT P6SM BKN040
     FM220000 VRB05KT P6SM SCT050
     FM220300 VRB05KT P6SM FEW150
     FM220700 VRB04KT P6SM BKN080
     FM220900 VRB05KT P6SM OVC025=

USA.gov is the U.S. government's official web portal to all federal, state and local government web resources and services.